sensor_id;sensor_type;location;lat;lon;timestamp;temperature;humidity
13344;DHT22;6741;48.964;9.406;2022-09-09T00:01:40;12.60;99.90
13344;DHT22;6741;48.964;9.406;2022-09-09T00:04:15;12.60;99.90
13344;DHT22;6741;48.964;9.406;2022-09-09T00:06:45;12.50;99.90
13344;DHT22;6741;48.964;9.406;2022-09-09T00:09:17;12.50;99.90
13344;DHT22;6741;48.964;9.406;2022-09-09T00:11:48;12.50;99.90
13344;DHT22;6741;48.964;9.406;2022-09-09T00:14:23;12.50;99.90
13344;DHT22;6741;48.964;9.406;2022-09-09T00:16:56;12.50;99.90
13344;DHT22;6741;48.964;9.406;2022-09-09T00:19:31;12.50;99.90
13344;DHT22;6741;48.964;9.406;2022-09-09T00:22:14;12.50;99.90
13344;DHT22;6741;48.964;9.406;2022-09-09T00:24:44;12.50;99.90
13344;DHT22;6741;48.964;9.406;2022-09-09T00:27:18;12.50;99.90
13344;DHT22;6741;48.964;9.406;2022-09-09T00:29:50;12.50;99.90
13344;DHT22;6741;48.964;9.406;2022-09-09T00:32:19;12.50;99.90
13344;DHT22;6741;48.964;9.406;2022-09-09T00:34:51;12.40;99.90
13344;DHT22;6741;48.964;9.406;2022-09-09T00:37:20;12.40;99.90
13344;DHT22;6741;48.964;9.406;2022-09-09T00:39:52;12.40;99.90
13344;DHT22;6741;48.964;9.406;2022-09-09T00:42:23;12.40;99.90
13344;DHT22;6741;48.964;9.406;2022-09-09T00:45:01;12.40;99.90
13344;DHT22;6741;48.964;9.406;2022-09-09T00:47:39;12.40;99.90
13344;DHT22;6741;48.964;9.406;2022-09-09T00:50:19;12.40;99.90
13344;DHT22;6741;48.964;9.406;2022-09-09T00:52:59;12.40;99.90
13344;DHT22;6741;48.964;9.406;2022-09-09T00:55:36;12.40;99.90
13344;DHT22;6741;48.964;9.406;2022-09-09T00:58:08;12.40;99.90
13344;DHT22;6741;48.964;9.406;2022-09-09T01:00:41;12.50;99.90
13344;DHT22;6741;48.964;9.406;2022-09-09T01:03:19;12.50;99.90
13344;DHT22;6741;48.964;9.406;2022-09-09T01:05:59;12.60;99.90
13344;DHT22;6741;48.964;9.406;2022-09-09T01:08:48;12.60;99.90
13344;DHT22;6741;48.964;9.406;2022-09-09T01:11:22;12.60;99.90
13344;DHT22;6741;48.964;9.406;2022-09-09T01:13:56;12.60;99.90
13344;DHT22;6741;48.964;9.406;2022-09-09T01:16:26;12.60;99.90
13344;DHT22;6741;48.964;9.406;2022-09-09T01:18:54;12.70;99.90
13344;DHT22;6741;48.964;9.406;2022-09-09T01:21:32;12.70;99.90
13344;DHT22;6741;48.964;9.406;2022-09-09T01:24:19;12.80;99.90
13344;DHT22;6741;48.964;9.406;2022-09-09T01:26:50;12.80;99.90
13344;DHT22;6741;48.964;9.406;2022-09-09T01:29:20;12.80;99.90
13344;DHT22;6741;48.964;9.406;2022-09-09T01:31:54;12.70;99.90
13344;DHT22;6741;48.964;9.406;2022-09-09T01:34:22;12.80;99.90
13344;DHT22;6741;48.964;9.406;2022-09-09T01:36:53;12.80;99.90
13344;DHT22;6741;48.964;9.406;2022-09-09T01:39:24;12.80;99.90
13344;DHT22;6741;48.964;9.406;2022-09-09T01:41:53;12.80;99.90
13344;DHT22;6741;48.964;9.406;2022-09-09T01:44:22;12.80;99.90
13344;DHT22;6741;48.964;9.406;2022-09-09T01:46:49;12.80;99.90
13344;DHT22;6741;48.964;9.406;2022-09-09T01:49:16;12.80;99.90
13344;DHT22;6741;48.964;9.406;2022-09-09T01:51:45;12.80;99.90
13344;DHT22;6741;48.964;9.406;2022-09-09T01:54:13;12.90;99.90
13344;DHT22;6741;48.964;9.406;2022-09-09T01:56:50;12.90;99.90
13344;DHT22;6741;48.964;9.406;2022-09-09T01:59:37;13.00;99.90
13344;DHT22;6741;48.964;9.406;2022-09-09T02:02:10;13.00;99.90
13344;DHT22;6741;48.964;9.406;2022-09-09T02:04:39;13.10;99.90
13344;DHT22;6741;48.964;9.406;2022-09-09T02:07:19;13.10;99.90
13344;DHT22;6741;48.964;9.406;2022-09-09T02:09:55;13.10;99.90
13344;DHT22;6741;48.964;9.406;2022-09-09T02:12:25;13.10;99.90
13344;DHT22;6741;48.964;9.406;2022-09-09T02:14:57;13.20;99.90
13344;DHT22;6741;48.964;9.406;2022-09-09T02:17:29;13.20;99.90
13344;DHT22;6741;48.964;9.406;2022-09-09T02:20:03;13.30;99.90
13344;DHT22;6741;48.964;9.406;2022-09-09T02:22:32;13.20;99.90
13344;DHT22;6741;48.964;9.406;2022-09-09T02:25:01;13.20;99.90
13344;DHT22;6741;48.964;9.406;2022-09-09T02:27:30;13.20;99.90
13344;DHT22;6741;48.964;9.406;2022-09-09T02:30:00;13.10;99.90
13344;DHT22;6741;48.964;9.406;2022-09-09T02:32:29;13.00;99.90
13344;DHT22;6741;48.964;9.406;2022-09-09T02:35:01;12.90;99.90
13344;DHT22;6741;48.964;9.406;2022-09-09T02:37:34;12.80;99.90
13344;DHT22;6741;48.964;9.406;2022-09-09T02:40:03;12.80;99.90
13344;DHT22;6741;48.964;9.406;2022-09-09T02:42:31;12.80;99.90
13344;DHT22;6741;48.964;9.406;2022-09-09T02:44:59;12.70;99.90
13344;DHT22;6741;48.964;9.406;2022-09-09T02:47:31;12.70;99.90
13344;DHT22;6741;48.964;9.406;2022-09-09T02:50:07;12.60;99.90
13344;DHT22;6741;48.964;9.406;2022-09-09T02:52:46;12.60;99.90
13344;DHT22;6741;48.964;9.406;2022-09-09T02:55:20;12.50;99.90
13344;DHT22;6741;48.964;9.406;2022-09-09T02:57:51;12.50;99.90
13344;DHT22;6741;48.964;9.406;2022-09-09T03:00:24;12.50;99.90
13344;DHT22;6741;48.964;9.406;2022-09-09T03:02:52;12.40;99.90
13344;DHT22;6741;48.964;9.406;2022-09-09T03:05:20;12.40;99.90
13344;DHT22;6741;48.964;9.406;2022-09-09T03:07:48;12.40;99.90
13344;DHT22;6741;48.964;9.406;2022-09-09T03:10:16;12.30;99.90
13344;DHT22;6741;48.964;9.406;2022-09-09T03:12:43;12.30;99.90
13344;DHT22;6741;48.964;9.406;2022-09-09T03:15:10;12.30;99.90
13344;DHT22;6741;48.964;9.406;2022-09-09T03:17:39;12.20;99.90
13344;DHT22;6741;48.964;9.406;2022-09-09T03:20:06;12.10;99.90
13344;DHT22;6741;48.964;9.406;2022-09-09T03:22:34;12.10;99.90
13344;DHT22;6741;48.964;9.406;2022-09-09T03:25:01;11.90;99.90
13344;DHT22;6741;48.964;9.406;2022-09-09T03:27:28;11.80;99.90
13344;DHT22;6741;48.964;9.406;2022-09-09T03:29:55;11.80;99.90
13344;DHT22;6741;48.964;9.406;2022-09-09T03:32:23;11.80;99.90
13344;DHT22;6741;48.964;9.406;2022-09-09T03:34:53;11.80;99.90
13344;DHT22;6741;48.964;9.406;2022-09-09T03:37:20;11.70;99.90
13344;DHT22;6741;48.964;9.406;2022-09-09T03:39:48;11.60;99.90
13344;DHT22;6741;48.964;9.406;2022-09-09T03:42:15;11.60;99.90
13344;DHT22;6741;48.964;9.406;2022-09-09T03:44:44;11.60;99.90
13344;DHT22;6741;48.964;9.406;2022-09-09T03:47:16;11.60;99.90
13344;DHT22;6741;48.964;9.406;2022-09-09T03:49:43;11.60;99.90
13344;DHT22;6741;48.964;9.406;2022-09-09T03:52:12;11.60;99.90
13344;DHT22;6741;48.964;9.406;2022-09-09T03:54:39;11.50;99.90
13344;DHT22;6741;48.964;9.406;2022-09-09T03:57:08;11.50;99.90
13344;DHT22;6741;48.964;9.406;2022-09-09T03:59:36;11.60;99.90
13344;DHT22;6741;48.964;9.406;2022-09-09T04:02:03;11.60;99.90
13344;DHT22;6741;48.964;9.406;2022-09-09T04:04:29;11.60;99.90
13344;DHT22;6741;48.964;9.406;2022-09-09T04:06:56;11.60;99.90
13344;DHT22;6741;48.964;9.406;2022-09-09T04:09:25;11.60;99.90
13344;DHT22;6741;48.964;9.406;2022-09-09T04:11:52;11.70;99.90
13344;DHT22;6741;48.964;9.406;2022-09-09T04:14:20;11.70;99.90
13344;DHT22;6741;48.964;9.406;2022-09-09T04:16:47;11.70;99.90
13344;DHT22;6741;48.964;9.406;2022-09-09T04:19:14;11.70;99.90
13344;DHT22;6741;48.964;9.406;2022-09-09T04:21:41;11.70;99.90
13344;DHT22;6741;48.964;9.406;2022-09-09T04:24:08;11.70;99.90
13344;DHT22;6741;48.964;9.406;2022-09-09T04:26:38;11.70;99.90
13344;DHT22;6741;48.964;9.406;2022-09-09T04:29:05;11.80;99.90
13344;DHT22;6741;48.964;9.406;2022-09-09T04:31:33;11.80;99.90
13344;DHT22;6741;48.964;9.406;2022-09-09T04:34:00;11.80;99.90
13344;DHT22;6741;48.964;9.406;2022-09-09T04:36:31;11.80;99.90
13344;DHT22;6741;48.964;9.406;2022-09-09T04:38:59;11.80;99.90
13344;DHT22;6741;48.964;9.406;2022-09-09T04:41:27;11.70;99.90
13344;DHT22;6741;48.964;9.406;2022-09-09T04:43:55;11.70;99.90
13344;DHT22;6741;48.964;9.406;2022-09-09T04:46:23;11.70;99.90
13344;DHT22;6741;48.964;9.406;2022-09-09T04:48:51;11.80;99.90
13344;DHT22;6741;48.964;9.406;2022-09-09T04:51:19;11.80;99.90
13344;DHT22;6741;48.964;9.406;2022-09-09T04:53:47;11.80;99.90
13344;DHT22;6741;48.964;9.406;2022-09-09T04:56:16;11.80;99.90
13344;DHT22;6741;48.964;9.406;2022-09-09T04:58:46;11.90;99.90
13344;DHT22;6741;48.964;9.406;2022-09-09T05:01:17;11.90;99.90
13344;DHT22;6741;48.964;9.406;2022-09-09T05:03:45;11.90;99.90
13344;DHT22;6741;48.964;9.406;2022-09-09T05:06:14;11.90;99.90
13344;DHT22;6741;48.964;9.406;2022-09-09T05:08:42;11.90;99.90
13344;DHT22;6741;48.964;9.406;2022-09-09T05:11:17;12.00;99.90
13344;DHT22;6741;48.964;9.406;2022-09-09T05:13:45;12.00;99.90
13344;DHT22;6741;48.964;9.406;2022-09-09T05:16:12;12.00;99.90
13344;DHT22;6741;48.964;9.406;2022-09-09T05:18:41;12.10;99.90
13344;DHT22;6741;48.964;9.406;2022-09-09T05:21:09;12.10;99.90
13344;DHT22;6741;48.964;9.406;2022-09-09T05:23:37;12.10;99.90
13344;DHT22;6741;48.964;9.406;2022-09-09T05:26:05;12.10;99.90
13344;DHT22;6741;48.964;9.406;2022-09-09T05:28:34;12.10;99.90
13344;DHT22;6741;48.964;9.406;2022-09-09T05:31:03;12.20;99.90
13344;DHT22;6741;48.964;9.406;2022-09-09T05:33:31;12.10;99.90
13344;DHT22;6741;48.964;9.406;2022-09-09T05:36:02;12.20;99.90
13344;DHT22;6741;48.964;9.406;2022-09-09T05:38:30;12.30;99.90
13344;DHT22;6741;48.964;9.406;2022-09-09T05:40:58;12.40;99.90
13344;DHT22;6741;48.964;9.406;2022-09-09T05:43:26;12.50;99.90
13344;DHT22;6741;48.964;9.406;2022-09-09T05:46:01;12.50;99.90
13344;DHT22;6741;48.964;9.406;2022-09-09T05:48:30;12.50;99.90
13344;DHT22;6741;48.964;9.406;2022-09-09T05:50:58;12.60;99.90
13344;DHT22;6741;48.964;9.406;2022-09-09T05:53:27;12.70;99.90
13344;DHT22;6741;48.964;9.406;2022-09-09T05:56:01;12.80;99.90
13344;DHT22;6741;48.964;9.406;2022-09-09T05:58:30;12.80;99.90
13344;DHT22;6741;48.964;9.406;2022-09-09T06:01:04;12.80;99.90
13344;DHT22;6741;48.964;9.406;2022-09-09T06:03:32;12.90;99.90
13344;DHT22;6741;48.964;9.406;2022-09-09T06:06:00;12.90;99.90
13344;DHT22;6741;48.964;9.406;2022-09-09T06:08:32;12.90;99.90
13344;DHT22;6741;48.964;9.406;2022-09-09T06:11:03;13.00;99.90
13344;DHT22;6741;48.964;9.406;2022-09-09T06:13:31;13.00;99.90
13344;DHT22;6741;48.964;9.406;2022-09-09T06:15:58;13.00;99.90
13344;DHT22;6741;48.964;9.406;2022-09-09T06:18:26;13.20;99.90
13344;DHT22;6741;48.964;9.406;2022-09-09T06:20:54;13.30;99.90
13344;DHT22;6741;48.964;9.406;2022-09-09T06:23:22;13.40;99.90
13344;DHT22;6741;48.964;9.406;2022-09-09T06:25:50;13.50;99.90
13344;DHT22;6741;48.964;9.406;2022-09-09T06:28:17;13.70;99.90
13344;DHT22;6741;48.964;9.406;2022-09-09T06:30:44;13.80;99.90
13344;DHT22;6741;48.964;9.406;2022-09-09T06:33:12;14.00;99.90
13344;DHT22;6741;48.964;9.406;2022-09-09T06:35:39;14.20;99.90
13344;DHT22;6741;48.964;9.406;2022-09-09T06:38:06;14.30;99.90
13344;DHT22;6741;48.964;9.406;2022-09-09T06:40:34;14.40;99.90
13344;DHT22;6741;48.964;9.406;2022-09-09T06:43:02;14.50;99.90
13344;DHT22;6741;48.964;9.406;2022-09-09T06:45:29;14.60;99.90
13344;DHT22;6741;48.964;9.406;2022-09-09T06:47:56;14.60;99.90
13344;DHT22;6741;48.964;9.406;2022-09-09T06:50:23;14.70;99.90
13344;DHT22;6741;48.964;9.406;2022-09-09T06:52:50;14.80;99.90
13344;DHT22;6741;48.964;9.406;2022-09-09T06:55:18;15.00;99.90
13344;DHT22;6741;48.964;9.406;2022-09-09T06:57:46;15.10;99.90
13344;DHT22;6741;48.964;9.406;2022-09-09T07:00:15;15.20;99.90
13344;DHT22;6741;48.964;9.406;2022-09-09T07:02:42;15.30;99.90
13344;DHT22;6741;48.964;9.406;2022-09-09T07:05:10;15.50;99.90
13344;DHT22;6741;48.964;9.406;2022-09-09T07:07:37;15.60;99.90
13344;DHT22;6741;48.964;9.406;2022-09-09T07:10:05;15.90;99.90
13344;DHT22;6741;48.964;9.406;2022-09-09T07:12:33;16.00;99.90
13344;DHT22;6741;48.964;9.406;2022-09-09T07:15:00;16.10;99.90
13344;DHT22;6741;48.964;9.406;2022-09-09T07:17:28;16.20;99.90
13344;DHT22;6741;48.964;9.406;2022-09-09T07:19:55;16.40;99.90
13344;DHT22;6741;48.964;9.406;2022-09-09T07:22:22;16.50;99.90
13344;DHT22;6741;48.964;9.406;2022-09-09T07:24:50;16.70;99.90
13344;DHT22;6741;48.964;9.406;2022-09-09T07:27:17;16.90;99.90
13344;DHT22;6741;48.964;9.406;2022-09-09T07:29:44;17.00;99.90
13344;DHT22;6741;48.964;9.406;2022-09-09T07:32:11;17.10;99.90
13344;DHT22;6741;48.964;9.406;2022-09-09T07:34:39;17.20;99.90
13344;DHT22;6741;48.964;9.406;2022-09-09T07:37:06;17.20;99.90
13344;DHT22;6741;48.964;9.406;2022-09-09T07:39:37;17.30;99.90
13344;DHT22;6741;48.964;9.406;2022-09-09T07:42:04;17.50;99.90
13344;DHT22;6741;48.964;9.406;2022-09-09T07:44:32;17.50;99.90
13344;DHT22;6741;48.964;9.406;2022-09-09T07:47:00;17.60;99.90
13344;DHT22;6741;48.964;9.406;2022-09-09T07:49:27;17.70;99.90
13344;DHT22;6741;48.964;9.406;2022-09-09T07:51:55;17.80;99.90
13344;DHT22;6741;48.964;9.406;2022-09-09T07:54:22;17.90;97.60
13344;DHT22;6741;48.964;9.406;2022-09-09T07:56:50;17.90;86.40
13344;DHT22;6741;48.964;9.406;2022-09-09T07:59:17;18.00;86.60
13344;DHT22;6741;48.964;9.406;2022-09-09T08:01:46;18.10;91.80
13344;DHT22;6741;48.964;9.406;2022-09-09T08:04:16;18.20;53.90
13344;DHT22;6741;48.964;9.406;2022-09-09T08:06:46;18.20;53.50
13344;DHT22;6741;48.964;9.406;2022-09-09T08:09:14;18.30;20.90
13344;DHT22;6741;48.964;9.406;2022-09-09T08:11:42;18.30;31.50
13344;DHT22;6741;48.964;9.406;2022-09-09T08:14:10;18.40;7.30
13344;DHT22;6741;48.964;9.406;2022-09-09T08:16:41;18.30;30.80
13344;DHT22;6741;48.964;9.406;2022-09-09T08:19:08;18.20;17.20
13344;DHT22;6741;48.964;9.406;2022-09-09T08:21:37;18.20;40.90
13344;DHT22;6741;48.964;9.406;2022-09-09T08:24:06;18.10;39.60
13344;DHT22;6741;48.964;9.406;2022-09-09T08:26:37;18.30;55.90
13344;DHT22;6741;48.964;9.406;2022-09-09T08:29:06;18.50;52.50
13344;DHT22;6741;48.964;9.406;2022-09-09T08:31:35;18.60;20.40
13344;DHT22;6741;48.964;9.406;2022-09-09T08:34:04;18.60;1.00
13344;DHT22;6741;48.964;9.406;2022-09-09T08:36:33;18.60;1.40
13344;DHT22;6741;48.964;9.406;2022-09-09T08:39:02;18.40;12.20
13344;DHT22;6741;48.964;9.406;2022-09-09T08:42:05;18.40;1.00
13344;DHT22;6741;48.964;9.406;2022-09-09T08:44:46;18.40;6.70
13344;DHT22;6741;48.964;9.406;2022-09-09T08:47:21;18.60;7.30
13344;DHT22;6741;48.964;9.406;2022-09-09T08:50:02;18.80;1.00
13344;DHT22;6741;48.964;9.406;2022-09-09T08:52:39;19.00;1.00
13344;DHT22;6741;48.964;9.406;2022-09-09T08:55:20;19.10;1.00
13344;DHT22;6741;48.964;9.406;2022-09-09T08:57:53;19.20;1.00
13344;DHT22;6741;48.964;9.406;2022-09-09T09:00:21;19.50;1.00
13344;DHT22;6741;48.964;9.406;2022-09-09T09:02:56;19.90;1.00
13344;DHT22;6741;48.964;9.406;2022-09-09T09:05:30;20.00;1.00
13344;DHT22;6741;48.964;9.406;2022-09-09T09:08:04;20.20;1.00
13344;DHT22;6741;48.964;9.406;2022-09-09T09:10:44;19.90;1.00
13344;DHT22;6741;48.964;9.406;2022-09-09T09:13:17;19.90;1.00
13344;DHT22;6741;48.964;9.406;2022-09-09T09:15:50;19.90;1.00
13344;DHT22;6741;48.964;9.406;2022-09-09T09:18:19;20.00;1.00
13344;DHT22;6741;48.964;9.406;2022-09-09T09:20:52;20.20;99.90
13344;DHT22;6741;48.964;9.406;2022-09-09T09:23:23;20.50;1.00
13344;DHT22;6741;48.964;9.406;2022-09-09T09:25:53;20.60;1.00
13344;DHT22;6741;48.964;9.406;2022-09-09T09:28:26;20.90;1.00
13344;DHT22;6741;48.964;9.406;2022-09-09T09:30:57;20.80;1.00
13344;DHT22;6741;48.964;9.406;2022-09-09T09:33:27;20.90;1.00
13344;DHT22;6741;48.964;9.406;2022-09-09T09:35:57;21.50;1.00
13344;DHT22;6741;48.964;9.406;2022-09-09T09:38:26;21.80;99.90
13344;DHT22;6741;48.964;9.406;2022-09-09T09:40:55;21.50;1.00
13344;DHT22;6741;48.964;9.406;2022-09-09T09:43:27;21.30;99.90
13344;DHT22;6741;48.964;9.406;2022-09-09T09:45:55;21.10;1.00
13344;DHT22;6741;48.964;9.406;2022-09-09T09:48:24;20.90;99.90
13344;DHT22;6741;48.964;9.406;2022-09-09T09:50:53;20.80;99.90
13344;DHT22;6741;48.964;9.406;2022-09-09T09:53:23;20.60;1.00
13344;DHT22;6741;48.964;9.406;2022-09-09T09:55:55;20.50;99.90
13344;DHT22;6741;48.964;9.406;2022-09-09T09:58:25;20.30;1.00
13344;DHT22;6741;48.964;9.406;2022-09-09T10:00:55;20.20;1.00
13344;DHT22;6741;48.964;9.406;2022-09-09T10:03:24;20.20;1.00
13344;DHT22;6741;48.964;9.406;2022-09-09T10:05:52;20.50;1.00
13344;DHT22;6741;48.964;9.406;2022-09-09T10:08:21;21.20;50.80
13344;DHT22;6741;48.964;9.406;2022-09-09T10:11:05;21.90;94.70
13344;DHT22;6741;48.964;9.406;2022-09-09T10:13:45;22.50;99.90
13344;DHT22;6741;48.964;9.406;2022-09-09T10:16:25;22.90;99.90
13344;DHT22;6741;48.964;9.406;2022-09-09T10:18:59;22.80;99.90
13344;DHT22;6741;48.964;9.406;2022-09-09T10:21:56;22.90;99.90
13344;DHT22;6741;48.964;9.406;2022-09-09T10:24:53;22.90;3.90
13344;DHT22;6741;48.964;9.406;2022-09-09T10:27:29;23.30;99.90
13344;DHT22;6741;48.964;9.406;2022-09-09T10:30:08;23.80;1.00
13344;DHT22;6741;48.964;9.406;2022-09-09T10:32:45;23.60;1.00
13344;DHT22;6741;48.964;9.406;2022-09-09T10:35:21;23.60;1.00
13344;DHT22;6741;48.964;9.406;2022-09-09T10:38:13;23.80;1.00
13344;DHT22;6741;48.964;9.406;2022-09-09T10:40:59;23.60;1.00
13344;DHT22;6741;48.964;9.406;2022-09-09T10:46:40;24.20;1.00
13344;DHT22;6741;48.964;9.406;2022-09-09T10:49:19;24.10;1.00
13344;DHT22;6741;48.964;9.406;2022-09-09T10:51:53;23.60;1.00
13344;DHT22;6741;48.964;9.406;2022-09-09T10:54:33;23.80;1.00
13344;DHT22;6741;48.964;9.406;2022-09-09T10:57:05;24.40;1.00
13344;DHT22;6741;48.964;9.406;2022-09-09T10:59:38;23.40;1.00
13344;DHT22;6741;48.964;9.406;2022-09-09T11:02:15;22.30;1.00
13344;DHT22;6741;48.964;9.406;2022-09-09T11:04:50;21.60;99.90
13344;DHT22;6741;48.964;9.406;2022-09-09T11:07:25;22.20;1.00
13344;DHT22;6741;48.964;9.406;2022-09-09T11:10:01;22.20;1.00
13344;DHT22;6741;48.964;9.406;2022-09-09T11:12:30;22.70;1.00
13344;DHT22;6741;48.964;9.406;2022-09-09T11:15:01;23.10;99.90
13344;DHT22;6741;48.964;9.406;2022-09-09T11:17:39;23.70;99.90
13344;DHT22;6741;48.964;9.406;2022-09-09T11:20:11;23.00;1.00
13344;DHT22;6741;48.964;9.406;2022-09-09T11:22:44;22.40;28.00
13344;DHT22;6741;48.964;9.406;2022-09-09T11:25:16;21.50;1.00
13344;DHT22;6741;48.964;9.406;2022-09-09T11:27:55;21.20;1.00
13344;DHT22;6741;48.964;9.406;2022-09-09T11:30:31;20.80;99.90
13344;DHT22;6741;48.964;9.406;2022-09-09T11:33:25;20.50;1.00
13344;DHT22;6741;48.964;9.406;2022-09-09T11:36:12;19.60;1.00
13344;DHT22;6741;48.964;9.406;2022-09-09T11:38:46;19.10;1.00
13344;DHT22;6741;48.964;9.406;2022-09-09T11:41:18;18.40;28.70
13344;DHT22;6741;48.964;9.406;2022-09-09T11:43:49;18.30;82.40
13344;DHT22;6741;48.964;9.406;2022-09-09T11:46:20;17.90;99.90
13344;DHT22;6741;48.964;9.406;2022-09-09T11:49:00;17.60;99.90
13344;DHT22;6741;48.964;9.406;2022-09-09T11:51:29;17.50;99.90
13344;DHT22;6741;48.964;9.406;2022-09-09T11:53:57;17.30;99.90
13344;DHT22;6741;48.964;9.406;2022-09-09T11:56:29;17.30;99.90
13344;DHT22;6741;48.964;9.406;2022-09-09T11:59:00;17.00;99.90
13344;DHT22;6741;48.964;9.406;2022-09-09T12:01:39;16.90;99.90
13344;DHT22;6741;48.964;9.406;2022-09-09T12:07:04;17.00;99.90
13344;DHT22;6741;48.964;9.406;2022-09-09T12:09:48;17.40;99.90
13344;DHT22;6741;48.964;9.406;2022-09-09T12:12:29;18.60;99.90
13344;DHT22;6741;48.964;9.406;2022-09-09T12:17:42;23.00;20.10
13344;DHT22;6741;48.964;9.406;2022-09-09T12:20:14;25.60;1.00
13344;DHT22;6741;48.964;9.406;2022-09-09T12:23:04;27.30;1.00
13344;DHT22;6741;48.964;9.406;2022-09-09T12:25:41;28.40;99.90
13344;DHT22;6741;48.964;9.406;2022-09-09T12:28:16;28.20;1.00
13344;DHT22;6741;48.964;9.406;2022-09-09T12:30:49;28.40;1.00
13344;DHT22;6741;48.964;9.406;2022-09-09T12:33:22;27.40;99.90
13344;DHT22;6741;48.964;9.406;2022-09-09T12:35:57;26.50;1.00
13344;DHT22;6741;48.964;9.406;2022-09-09T12:38:32;25.80;1.00
13344;DHT22;6741;48.964;9.406;2022-09-09T12:41:04;26.10;99.90
13344;DHT22;6741;48.964;9.406;2022-09-09T12:43:34;27.10;1.00
13344;DHT22;6741;48.964;9.406;2022-09-09T12:46:04;27.90;39.00
13344;DHT22;6741;48.964;9.406;2022-09-09T12:48:36;28.30;1.00
13344;DHT22;6741;48.964;9.406;2022-09-09T12:51:07;27.90;99.90
13344;DHT22;6741;48.964;9.406;2022-09-09T12:53:42;26.10;99.90
13344;DHT22;6741;48.964;9.406;2022-09-09T12:56:19;25.30;99.90
13344;DHT22;6741;48.964;9.406;2022-09-09T12:58:48;25.50;99.90
13344;DHT22;6741;48.964;9.406;2022-09-09T13:01:22;25.30;99.90
13344;DHT22;6741;48.964;9.406;2022-09-09T13:03:49;26.30;99.90
13344;DHT22;6741;48.964;9.406;2022-09-09T13:06:21;27.00;99.90
13344;DHT22;6741;48.964;9.406;2022-09-09T13:08:50;28.00;99.90
13344;DHT22;6741;48.964;9.406;2022-09-09T13:11:20;29.30;1.00
13344;DHT22;6741;48.964;9.406;2022-09-09T13:13:53;29.30;1.00
13344;DHT22;6741;48.964;9.406;2022-09-09T13:16:25;30.50;1.00
13344;DHT22;6741;48.964;9.406;2022-09-09T13:18:52;30.00;99.90
13344;DHT22;6741;48.964;9.406;2022-09-09T13:21:33;28.80;99.90
13344;DHT22;6741;48.964;9.406;2022-09-09T13:24:00;27.80;1.00
13344;DHT22;6741;48.964;9.406;2022-09-09T13:26:30;27.50;1.00
13344;DHT22;6741;48.964;9.406;2022-09-09T13:29:15;26.80;1.00
13344;DHT22;6741;48.964;9.406;2022-09-09T13:31:44;25.70;1.00
13344;DHT22;6741;48.964;9.406;2022-09-09T13:34:13;24.70;1.00
13344;DHT22;6741;48.964;9.406;2022-09-09T13:36:46;23.30;99.90
13344;DHT22;6741;48.964;9.406;2022-09-09T13:39:16;22.70;99.90
13344;DHT22;6741;48.964;9.406;2022-09-09T13:41:45;22.10;99.90
13344;DHT22;6741;48.964;9.406;2022-09-09T13:44:21;21.90;1.00
13344;DHT22;6741;48.964;9.406;2022-09-09T13:47:01;21.70;14.00
13344;DHT22;6741;48.964;9.406;2022-09-09T13:49:29;21.50;99.90
13344;DHT22;6741;48.964;9.406;2022-09-09T13:52:12;21.50;99.90
13344;DHT22;6741;48.964;9.406;2022-09-09T13:54:40;21.70;1.00
13344;DHT22;6741;48.964;9.406;2022-09-09T13:57:15;21.80;1.00
13344;DHT22;6741;48.964;9.406;2022-09-09T13:59:42;22.10;1.00
13344;DHT22;6741;48.964;9.406;2022-09-09T14:02:09;22.20;99.90
13344;DHT22;6741;48.964;9.406;2022-09-09T14:04:36;23.20;99.90
13344;DHT22;6741;48.964;9.406;2022-09-09T14:07:04;23.40;99.90
13344;DHT22;6741;48.964;9.406;2022-09-09T14:09:32;23.10;99.90
13344;DHT22;6741;48.964;9.406;2022-09-09T14:12:00;22.70;1.00
13344;DHT22;6741;48.964;9.406;2022-09-09T14:14:28;22.30;1.00
13344;DHT22;6741;48.964;9.406;2022-09-09T14:16:55;22.00;1.00
13344;DHT22;6741;48.964;9.406;2022-09-09T14:19:22;21.90;99.90
13344;DHT22;6741;48.964;9.406;2022-09-09T14:21:48;21.80;99.90
13344;DHT22;6741;48.964;9.406;2022-09-09T14:24:16;21.60;1.00
13344;DHT22;6741;48.964;9.406;2022-09-09T14:26:44;21.40;1.00
13344;DHT22;6741;48.964;9.406;2022-09-09T14:29:11;21.50;1.00
13344;DHT22;6741;48.964;9.406;2022-09-09T14:31:38;21.70;99.90
13344;DHT22;6741;48.964;9.406;2022-09-09T14:34:05;21.60;1.00
13344;DHT22;6741;48.964;9.406;2022-09-09T14:36:33;21.60;99.90
13344;DHT22;6741;48.964;9.406;2022-09-09T14:39:00;21.60;99.90
13344;DHT22;6741;48.964;9.406;2022-09-09T14:41:27;21.50;99.90
13344;DHT22;6741;48.964;9.406;2022-09-09T14:43:56;21.50;99.90
13344;DHT22;6741;48.964;9.406;2022-09-09T14:46:23;21.90;99.90
13344;DHT22;6741;48.964;9.406;2022-09-09T14:48:50;22.40;1.00
13344;DHT22;6741;48.964;9.406;2022-09-09T14:51:20;22.30;97.70
13344;DHT22;6741;48.964;9.406;2022-09-09T14:53:50;23.10;99.90
13344;DHT22;6741;48.964;9.406;2022-09-09T14:56:19;24.70;99.90
13344;DHT22;6741;48.964;9.406;2022-09-09T14:58:48;24.80;1.00
13344;DHT22;6741;48.964;9.406;2022-09-09T15:01:18;24.20;1.00
13344;DHT22;6741;48.964;9.406;2022-09-09T15:03:49;23.50;99.90
13344;DHT22;6741;48.964;9.406;2022-09-09T15:06:17;24.00;41.90
13344;DHT22;6741;48.964;9.406;2022-09-09T15:08:45;23.20;1.00
13344;DHT22;6741;48.964;9.406;2022-09-09T15:11:13;22.80;99.90
13344;DHT22;6741;48.964;9.406;2022-09-09T15:13:42;22.60;99.90
13344;DHT22;6741;48.964;9.406;2022-09-09T15:16:10;22.30;99.90
13344;DHT22;6741;48.964;9.406;2022-09-09T15:18:39;22.30;99.90
13344;DHT22;6741;48.964;9.406;2022-09-09T15:21:08;22.00;1.00
13344;DHT22;6741;48.964;9.406;2022-09-09T15:23:36;21.90;62.50
13344;DHT22;6741;48.964;9.406;2022-09-09T15:26:03;21.70;99.90
13344;DHT22;6741;48.964;9.406;2022-09-09T15:28:32;21.60;1.00
13344;DHT22;6741;48.964;9.406;2022-09-09T15:30:59;21.50;99.90
13344;DHT22;6741;48.964;9.406;2022-09-09T15:33:31;21.20;1.00
13344;DHT22;6741;48.964;9.406;2022-09-09T15:36:00;21.10;1.00
13344;DHT22;6741;48.964;9.406;2022-09-09T15:38:27;20.90;1.00
13344;DHT22;6741;48.964;9.406;2022-09-09T15:40:54;20.70;99.90
13344;DHT22;6741;48.964;9.406;2022-09-09T15:43:22;20.60;99.90
13344;DHT22;6741;48.964;9.406;2022-09-09T15:45:52;20.50;75.90
13344;DHT22;6741;48.964;9.406;2022-09-09T15:48:25;20.60;99.90
13344;DHT22;6741;48.964;9.406;2022-09-09T15:51:03;20.60;1.00
13344;DHT22;6741;48.964;9.406;2022-09-09T15:53:30;20.60;95.80
13344;DHT22;6741;48.964;9.406;2022-09-09T15:55:58;20.50;1.00
13344;DHT22;6741;48.964;9.406;2022-09-09T15:58:25;20.50;1.00
13344;DHT22;6741;48.964;9.406;2022-09-09T16:00:52;20.50;1.00
13344;DHT22;6741;48.964;9.406;2022-09-09T16:03:19;20.60;44.50
13344;DHT22;6741;48.964;9.406;2022-09-09T16:05:51;20.50;99.90
13344;DHT22;6741;48.964;9.406;2022-09-09T16:08:19;20.30;1.00
13344;DHT22;6741;48.964;9.406;2022-09-09T16:10:46;20.20;99.90
13344;DHT22;6741;48.964;9.406;2022-09-09T16:13:13;20.10;1.00
13344;DHT22;6741;48.964;9.406;2022-09-09T16:15:40;20.00;1.00
13344;DHT22;6741;48.964;9.406;2022-09-09T16:18:08;20.00;99.90
13344;DHT22;6741;48.964;9.406;2022-09-09T16:20:35;19.90;99.90
13344;DHT22;6741;48.964;9.406;2022-09-09T16:23:01;19.80;64.40